createdAt,value
2018-07-03T00:00:37.215Z,1003.95
2018-07-03T00:01:37.190Z,1003.95
2018-07-03T00:02:37.216Z,1003.96
2018-07-03T00:03:37.189Z,1003.98
2018-07-03T00:04:37.146Z,1003.98
2018-07-03T00:05:37.095Z,1003.93
2018-07-03T00:06:37.068Z,1003.98
2018-07-03T00:07:37.053Z,1004.01
2018-07-03T00:08:37.025Z,1004.01
2018-07-03T00:09:36.999Z,1004.09
2018-07-03T00:10:36.976Z,1004.07
2018-07-03T00:11:36.950Z,1004.10
2018-07-03T00:12:36.933Z,1004.10
2018-07-03T00:13:36.910Z,1004.13
2018-07-03T00:14:36.886Z,1004.08
2018-07-03T00:15:36.853Z,1004.08
2018-07-03T00:16:36.832Z,1004.10
2018-07-03T00:17:36.813Z,1004.06
2018-07-03T00:18:36.786Z,1004.07
2018-07-03T00:19:36.762Z,1004.06
2018-07-03T00:20:36.740Z,1004.10
2018-07-03T00:21:36.717Z,1004.08
2018-07-03T00:22:36.691Z,1004.09
2018-07-03T00:23:36.671Z,1004.10
2018-07-03T00:24:36.641Z,1004.08
2018-07-03T00:25:36.622Z,1004.10
2018-07-03T00:26:36.599Z,1004.11
2018-07-03T00:27:36.569Z,1004.18
2018-07-03T00:28:36.549Z,1004.09
2018-07-03T00:29:36.522Z,1004.09
2018-07-03T00:30:36.503Z,1004.11
2018-07-03T00:31:36.484Z,1004.07
2018-07-03T00:32:36.455Z,1004.06
2018-07-03T00:33:36.430Z,1004.07
2018-07-03T00:34:36.414Z,1004.05
2018-07-03T00:35:36.381Z,1003.99
2018-07-03T00:36:36.357Z,1004.05
2018-07-03T00:37:36.336Z,1004.03
2018-07-03T00:38:36.307Z,1004.03
2018-07-03T00:39:36.292Z,1004.05
2018-07-03T00:40:36.265Z,1004.04
2018-07-03T00:41:36.237Z,1004.07
2018-07-03T00:42:36.217Z,1004.06
2018-07-03T00:43:36.211Z,1004.08
2018-07-03T00:44:36.168Z,1004.05
2018-07-03T00:45:36.148Z,1004.05
2018-07-03T00:46:36.130Z,1004.04
2018-07-03T00:47:36.099Z,1004.04
2018-07-03T00:48:36.084Z,1003.99
2018-07-03T00:49:36.104Z,1004.00
2018-07-03T00:50:36.029Z,1003.95
2018-07-03T00:51:36.005Z,1003.91
2018-07-03T00:52:35.976Z,1003.94
2018-07-03T00:53:35.954Z,1003.92
2018-07-03T00:54:35.932Z,1003.96
2018-07-03T00:55:35.903Z,1003.96
2018-07-03T00:56:35.879Z,1003.98
2018-07-03T00:57:35.857Z,1003.98
2018-07-03T00:58:35.838Z,1003.97
2018-07-03T00:59:35.808Z,1003.95
2018-07-03T01:00:35.786Z,1003.97
2018-07-03T01:01:35.762Z,1003.95
2018-07-03T01:02:35.733Z,1003.94
2018-07-03T01:03:35.718Z,1003.91
2018-07-03T01:04:35.693Z,1003.89
2018-07-03T01:05:35.662Z,1003.93
2018-07-03T01:06:35.647Z,1003.93
2018-07-03T01:07:35.614Z,1003.98
2018-07-03T01:08:35.596Z,1003.94
2018-07-03T01:09:35.566Z,1003.98
2018-07-03T01:10:35.541Z,1003.91
2018-07-03T01:11:35.526Z,1003.95
2018-07-03T01:12:35.491Z,1003.93
2018-07-03T01:13:35.481Z,1003.92
2018-07-03T01:14:35.453Z,1003.93
2018-07-03T01:15:35.424Z,1003.87
2018-07-03T01:16:35.404Z,1003.88
2018-07-03T01:17:35.374Z,1003.91
2018-07-03T01:18:35.353Z,1003.90
2018-07-03T01:19:35.331Z,1003.94
2018-07-03T01:20:35.304Z,1003.92
2018-07-03T01:21:35.282Z,1003.92
2018-07-03T01:22:35.256Z,1003.95
2018-07-03T01:23:35.247Z,1003.98
2018-07-03T01:24:35.204Z,1003.94
2018-07-03T01:25:35.188Z,1003.92
2018-07-03T01:26:35.168Z,1003.90
2018-07-03T01:27:35.135Z,1003.92
2018-07-03T01:28:35.120Z,1003.90
2018-07-03T01:29:35.086Z,1003.92
2018-07-03T01:30:35.068Z,1003.94
2018-07-03T01:31:35.038Z,1003.97
2018-07-03T01:32:35.013Z,1003.96
2018-07-03T01:33:34.988Z,1003.98
2018-07-03T01:34:34.970Z,1004.00
2018-07-03T01:35:34.948Z,1003.97
2018-07-03T01:36:34.917Z,1003.96
2018-07-03T01:37:34.898Z,1003.95
2018-07-03T01:38:34.876Z,1003.94
2018-07-03T01:39:34.847Z,1003.91
2018-07-03T01:40:34.826Z,1003.94
2018-07-03T01:41:34.797Z,1003.92
2018-07-03T01:42:34.770Z,1003.93
2018-07-03T01:43:34.759Z,1003.94
2018-07-03T01:44:34.722Z,1003.96
2018-07-03T01:45:34.707Z,1003.95
2018-07-03T01:46:34.675Z,1003.97
2018-07-03T01:47:34.660Z,1004.01
2018-07-03T01:48:34.628Z,1003.97
2018-07-03T01:49:34.604Z,1003.95
2018-07-03T01:50:34.580Z,1003.99
2018-07-03T01:51:34.554Z,1004.01
2018-07-03T01:52:34.528Z,1004.07
2018-07-03T01:53:34.509Z,1004.02
2018-07-03T01:54:34.484Z,1004.02
2018-07-03T01:55:34.458Z,1004.05
2018-07-03T01:56:34.429Z,1004.04
2018-07-03T01:57:34.414Z,1004.04
2018-07-03T01:58:34.391Z,1004.02
2018-07-03T01:59:34.362Z,1003.96
2018-07-03T02:00:34.341Z,1003.93
2018-07-03T02:01:34.311Z,1003.90
2018-07-03T02:02:34.297Z,1003.92
2018-07-03T02:03:34.261Z,1003.92
2018-07-03T02:04:34.240Z,1003.91
2018-07-03T02:05:34.219Z,1003.89
2018-07-03T02:06:34.201Z,1003.90
2018-07-03T02:07:34.188Z,1003.90
2018-07-03T02:08:34.146Z,1003.94
2018-07-03T02:09:34.118Z,1003.91
2018-07-03T02:10:34.102Z,1003.94
2018-07-03T02:11:34.065Z,1003.92
2018-07-03T02:12:34.053Z,1003.88
2018-07-03T02:13:34.022Z,1003.88
2018-07-03T02:14:33.993Z,1003.86
2018-07-03T02:15:33.979Z,1003.83
2018-07-03T02:16:33.945Z,1003.83
2018-07-03T02:17:33.928Z,1003.84
2018-07-03T02:18:33.924Z,1003.82
2018-07-03T02:19:33.874Z,1003.82
2018-07-03T02:20:33.864Z,1003.83
2018-07-03T02:21:33.826Z,1003.80
2018-07-03T02:22:33.800Z,1003.77
2018-07-03T02:23:33.782Z,1003.81
2018-07-03T02:24:33.753Z,1003.79
2018-07-03T02:25:33.733Z,1003.79
2018-07-03T02:26:33.707Z,1003.81
2018-07-03T02:27:33.679Z,1003.78
2018-07-03T02:28:33.661Z,1003.78
2018-07-03T02:29:33.629Z,1003.77
2018-07-03T02:30:33.606Z,1003.76
2018-07-03T02:31:33.585Z,1003.75
2018-07-03T02:32:33.561Z,1003.76
2018-07-03T02:33:33.535Z,1003.71
2018-07-03T02:34:33.515Z,1003.70
2018-07-03T02:35:33.495Z,1003.71
2018-07-03T02:36:33.476Z,1003.73
2018-07-03T02:37:33.436Z,1003.76
2018-07-03T02:38:33.418Z,1003.78
2018-07-03T02:39:33.401Z,1003.73
2018-07-03T02:40:33.365Z,1003.75
2018-07-03T02:41:33.345Z,1003.75
2018-07-03T02:42:33.334Z,1003.75
2018-07-03T02:43:33.313Z,1003.74
2018-07-03T02:44:33.273Z,1003.75
2018-07-03T02:45:33.239Z,1003.76
2018-07-03T02:46:33.220Z,1003.77
2018-07-03T02:47:33.195Z,1003.79
2018-07-03T02:48:33.169Z,1003.79
2018-07-03T02:49:33.149Z,1003.78
2018-07-03T02:50:33.118Z,1003.80
2018-07-03T02:51:33.103Z,1003.81
2018-07-03T02:52:33.066Z,1003.78
2018-07-03T02:53:33.045Z,1003.75
2018-07-03T02:54:33.031Z,1003.72
2018-07-03T02:55:32.993Z,1003.72
2018-07-03T02:56:32.970Z,1003.74
2018-07-03T02:57:32.952Z,1003.72
2018-07-03T02:58:32.923Z,1003.71
2018-07-03T02:59:32.898Z,1003.73
2018-07-03T03:00:32.874Z,1003.74
2018-07-03T03:01:32.901Z,1003.72
2018-07-03T03:02:32.826Z,1003.76
2018-07-03T03:03:32.899Z,1003.74
2018-07-03T03:04:32.779Z,1003.72
2018-07-03T03:05:32.757Z,1003.70
2018-07-03T03:06:32.733Z,1003.69
2018-07-03T03:07:32.704Z,1003.72
2018-07-03T03:08:32.681Z,1003.71
2018-07-03T03:09:32.652Z,1003.77
2018-07-03T03:10:32.629Z,1003.75
2018-07-03T03:11:32.607Z,1003.76
2018-07-03T03:12:32.588Z,1003.74
2018-07-03T03:13:32.556Z,1003.70
2018-07-03T03:14:32.556Z,1003.73
2018-07-03T03:15:32.505Z,1003.72
2018-07-03T03:16:32.484Z,1003.72
2018-07-03T03:17:32.460Z,1003.67
2018-07-03T03:18:32.439Z,1003.72
2018-07-03T03:19:32.405Z,1003.72
2018-07-03T03:20:32.381Z,1003.72
2018-07-03T03:21:32.355Z,1003.69
2018-07-03T03:22:32.355Z,1003.73
2018-07-03T03:23:32.308Z,1003.74
2018-07-03T03:24:32.285Z,1003.74
2018-07-03T03:25:32.261Z,1003.71
2018-07-03T03:26:32.234Z,1003.70
2018-07-03T03:27:32.217Z,1003.69
2018-07-03T03:28:32.186Z,1003.66
2018-07-03T03:29:32.168Z,1003.68
2018-07-03T03:30:32.140Z,1003.71
2018-07-03T03:31:32.119Z,1003.69
2018-07-03T03:32:32.087Z,1003.68
2018-07-03T03:33:32.059Z,1003.66
2018-07-03T03:34:32.039Z,1003.67
2018-07-03T03:35:32.013Z,1003.68
2018-07-03T03:36:31.989Z,1003.72
2018-07-03T03:37:31.970Z,1003.72
2018-07-03T03:38:31.941Z,1003.71
2018-07-03T03:39:31.921Z,1003.74
2018-07-03T03:40:31.894Z,1003.73
2018-07-03T03:41:31.869Z,1003.73
2018-07-03T03:42:31.848Z,1003.71
2018-07-03T03:43:31.815Z,1003.67
2018-07-03T03:44:31.800Z,1003.72
2018-07-03T03:45:31.765Z,1003.71
2018-07-03T03:46:31.746Z,1003.72
2018-07-03T03:47:31.718Z,1003.70
2018-07-03T03:48:31.697Z,1003.71
2018-07-03T03:49:31.674Z,1003.76
2018-07-03T03:50:31.666Z,1003.76
2018-07-03T03:51:31.623Z,1003.77
2018-07-03T03:52:31.601Z,1003.84
2018-07-03T03:53:31.569Z,1003.78
2018-07-03T03:54:31.552Z,1003.80
2018-07-03T03:55:31.526Z,1003.84
2018-07-03T03:56:31.494Z,1003.79
2018-07-03T03:57:31.476Z,1003.80
2018-07-03T03:58:31.441Z,1003.81
2018-07-03T03:59:31.428Z,1003.82
2018-07-03T04:00:31.392Z,1003.80
2018-07-03T04:01:31.376Z,1003.80
2018-07-03T04:02:31.347Z,1003.82
2018-07-03T04:03:31.320Z,1003.80
2018-07-03T04:04:31.296Z,1003.79
2018-07-03T04:05:31.280Z,1003.80
2018-07-03T04:06:31.251Z,1003.82
2018-07-03T04:07:31.225Z,1003.79
2018-07-03T04:08:31.202Z,1003.79
2018-07-03T04:09:31.177Z,1003.83
2018-07-03T04:10:31.145Z,1003.78
2018-07-03T04:11:31.130Z,1003.82
2018-07-03T04:12:31.096Z,1003.83
2018-07-03T04:13:31.080Z,1003.81
2018-07-03T04:14:31.055Z,1003.83
2018-07-03T04:15:31.027Z,1003.83
2018-07-03T04:16:31.006Z,1003.83
2018-07-03T04:17:30.975Z,1003.84
2018-07-03T04:18:30.948Z,1003.88
2018-07-03T04:19:30.927Z,1003.84
2018-07-03T04:20:31.048Z,1003.87
2018-07-03T04:21:30.879Z,1003.87
2018-07-03T04:22:30.858Z,1003.86
2018-07-03T04:23:30.830Z,1003.88
2018-07-03T04:24:30.801Z,1003.92
2018-07-03T04:25:30.783Z,1003.88
2018-07-03T04:26:30.758Z,1003.90
2018-07-03T04:27:30.727Z,1003.89
2018-07-03T04:28:30.702Z,1003.86
2018-07-03T04:29:30.681Z,1003.91
2018-07-03T04:30:30.653Z,1003.87
2018-07-03T04:31:30.633Z,1003.87
2018-07-03T04:32:30.608Z,1003.89
2018-07-03T04:33:30.584Z,1003.89
2018-07-03T04:34:30.553Z,1003.93
2018-07-03T04:35:30.536Z,1003.92
2018-07-03T04:36:30.503Z,1003.93
2018-07-03T04:37:30.484Z,1003.96
2018-07-03T04:38:30.455Z,1003.93
2018-07-03T04:39:30.430Z,1003.93
2018-07-03T04:40:30.407Z,1003.91
2018-07-03T04:41:30.469Z,1003.97
2018-07-03T04:42:30.360Z,1003.96
2018-07-03T04:43:30.333Z,1003.97
2018-07-03T04:44:30.308Z,1003.95
2018-07-03T04:45:30.288Z,1003.96
2018-07-03T04:46:30.257Z,1003.97
2018-07-03T04:47:30.286Z,1004.00
2018-07-03T04:48:30.213Z,1003.98
2018-07-03T04:49:30.180Z,1003.98
2018-07-03T04:50:30.158Z,1003.99
2018-07-03T04:51:30.135Z,1003.96
2018-07-03T04:52:30.110Z,1003.99
2018-07-03T04:53:30.109Z,1004.02
2018-07-03T04:54:30.067Z,1004.04
2018-07-03T04:55:30.035Z,1004.06
2018-07-03T04:56:30.013Z,1004.10
2018-07-03T04:57:29.986Z,1004.10
2018-07-03T04:58:29.960Z,1004.14
2018-07-03T04:59:29.938Z,1004.14
2018-07-03T05:00:29.909Z,1004.14
2018-07-03T05:01:29.888Z,1004.11
2018-07-03T05:02:29.863Z,1004.13
2018-07-03T05:03:29.835Z,1004.11
2018-07-03T05:04:29.814Z,1004.11
2018-07-03T05:05:29.790Z,1004.17
2018-07-03T05:06:29.762Z,1004.14
2018-07-03T05:07:29.735Z,1004.16
2018-07-03T05:08:29.712Z,1004.17
2018-07-03T05:09:29.692Z,1004.20
2018-07-03T05:10:29.668Z,1004.15
2018-07-03T05:11:29.639Z,1004.12
2018-07-03T05:12:29.615Z,1004.11
2018-07-03T05:13:29.594Z,1004.12
2018-07-03T05:14:29.566Z,1004.20
2018-07-03T05:15:29.543Z,1004.19
2018-07-03T05:16:29.517Z,1004.19
2018-07-03T05:17:29.499Z,1004.20
2018-07-03T05:18:29.465Z,1004.24
2018-07-03T05:19:29.444Z,1004.21
2018-07-03T05:20:29.414Z,1004.19
2018-07-03T05:21:29.395Z,1004.19
2018-07-03T05:22:29.371Z,1004.17
2018-07-03T05:23:29.348Z,1004.17
2018-07-03T05:24:29.315Z,1004.18
2018-07-03T05:25:29.297Z,1004.22
2018-07-03T05:26:29.269Z,1004.24
2018-07-03T05:27:29.250Z,1004.23
2018-07-03T05:28:29.226Z,1004.24
2018-07-03T05:29:29.196Z,1004.26
2018-07-03T05:30:29.169Z,1004.30
2018-07-03T05:31:29.216Z,1004.32
2018-07-03T05:32:29.127Z,1004.30
2018-07-03T05:33:29.093Z,1004.34
2018-07-03T05:34:29.074Z,1004.32
2018-07-03T05:35:29.049Z,1004.30
2018-07-03T05:36:29.018Z,1004.31
2018-07-03T05:37:29.093Z,1004.30
2018-07-03T05:38:28.977Z,1004.33
2018-07-03T05:39:28.950Z,1004.32
2018-07-03T05:40:28.926Z,1004.35
2018-07-03T05:41:28.901Z,1004.39
2018-07-03T05:42:28.873Z,1004.36
2018-07-03T05:43:28.855Z,1004.41
2018-07-03T05:44:28.828Z,1004.37
2018-07-03T05:45:28.804Z,1004.38
2018-07-03T05:46:28.779Z,1004.35
2018-07-03T05:47:28.753Z,1004.34
2018-07-03T05:48:28.727Z,1004.41
2018-07-03T05:49:28.707Z,1004.36
2018-07-03T05:50:28.678Z,1004.37
2018-07-03T05:51:28.791Z,1004.38
2018-07-03T05:52:28.635Z,1004.36
2018-07-03T05:53:28.602Z,1004.37
2018-07-03T05:54:28.743Z,1004.38
2018-07-03T05:55:28.692Z,1004.37
2018-07-03T05:56:28.609Z,1004.38
2018-07-03T05:57:28.509Z,1004.37
2018-07-03T05:58:28.485Z,1004.41
2018-07-03T05:59:28.461Z,1004.40
2018-07-03T06:00:28.438Z,1004.39
2018-07-03T06:01:28.410Z,1004.40
2018-07-03T06:02:28.392Z,1004.43
2018-07-03T06:03:28.358Z,1004.41
2018-07-03T06:04:28.340Z,1004.42
2018-07-03T06:05:28.309Z,1004.43
2018-07-03T06:06:28.285Z,1004.43
2018-07-03T06:07:28.269Z,1004.46
2018-07-03T06:08:28.236Z,1004.45
2018-07-03T06:09:28.277Z,1004.45
2018-07-03T06:10:28.189Z,1004.46
2018-07-03T06:11:28.164Z,1004.48
2018-07-03T06:12:28.140Z,1004.48
2018-07-03T06:13:28.120Z,1004.48
2018-07-03T06:14:28.092Z,1004.49
2018-07-03T06:15:28.067Z,1004.49
2018-07-03T06:16:28.045Z,1004.45
2018-07-03T06:17:28.025Z,1004.49
2018-07-03T06:18:27.995Z,1004.51
2018-07-03T06:19:27.983Z,1004.54
2018-07-03T06:20:27.945Z,1004.56
2018-07-03T06:21:27.924Z,1004.58
2018-07-03T06:22:27.909Z,1004.57
2018-07-03T06:23:27.871Z,1004.58
2018-07-03T06:24:27.851Z,1004.57
2018-07-03T06:25:27.821Z,1004.55
2018-07-03T06:26:27.800Z,1004.51
2018-07-03T06:27:27.780Z,1004.48
2018-07-03T06:28:27.749Z,1004.49
2018-07-03T06:29:27.733Z,1004.49
2018-07-03T06:30:27.706Z,1004.47
2018-07-03T06:31:27.679Z,1004.47
2018-07-03T06:32:27.657Z,1004.47
2018-07-03T06:33:27.633Z,1004.45
2018-07-03T06:34:27.608Z,1004.46
2018-07-03T06:35:27.575Z,1004.47
2018-07-03T06:36:27.565Z,1004.44
2018-07-03T06:37:27.588Z,1004.43
2018-07-03T06:38:27.501Z,1004.42
2018-07-03T06:39:27.486Z,1004.43
2018-07-03T06:40:27.456Z,1004.40
2018-07-03T06:41:27.438Z,1004.44
2018-07-03T06:42:27.415Z,1004.41
2018-07-03T06:43:27.384Z,1004.39
2018-07-03T06:44:27.364Z,1004.41
2018-07-03T06:45:27.340Z,1004.42
2018-07-03T06:46:27.312Z,1004.40
2018-07-03T06:47:27.314Z,1004.39
2018-07-03T06:48:27.268Z,1004.37
2018-07-03T06:49:27.241Z,1004.37
2018-07-03T06:50:27.216Z,1004.37
2018-07-03T06:51:27.198Z,1004.37
2018-07-03T06:52:27.277Z,1004.42
2018-07-03T06:53:27.144Z,1004.39
2018-07-03T06:54:27.126Z,1004.36
2018-07-03T06:55:27.094Z,1004.38
2018-07-03T06:56:27.070Z,1004.38
2018-07-03T06:57:27.049Z,1004.40
2018-07-03T06:58:27.028Z,1004.39
2018-07-03T06:59:27.001Z,1004.39
2018-07-03T07:00:26.977Z,1004.41
2018-07-03T07:01:26.951Z,1004.41
2018-07-03T07:02:26.927Z,1004.41
2018-07-03T07:03:26.905Z,1004.42
2018-07-03T07:04:26.876Z,1004.46
2018-07-03T07:05:26.857Z,1004.45
2018-07-03T07:06:26.833Z,1004.45
2018-07-03T07:07:26.806Z,1004.43
2018-07-03T07:08:26.792Z,1004.43
2018-07-03T07:09:26.846Z,1004.39
2018-07-03T07:10:26.731Z,1004.42
2018-07-03T07:11:26.718Z,1004.40
2018-07-03T07:12:26.684Z,1004.39
2018-07-03T07:13:26.672Z,1004.37
2018-07-03T07:14:26.641Z,1004.34
2018-07-03T07:15:26.621Z,1004.38
2018-07-03T07:16:26.588Z,1004.38
2018-07-03T07:17:26.572Z,1004.38
2018-07-03T07:18:26.542Z,1004.39
2018-07-03T07:19:26.556Z,1004.39
2018-07-03T07:20:26.504Z,1004.41
2018-07-03T07:21:26.474Z,1004.37
2018-07-03T07:22:26.455Z,1004.36
2018-07-03T07:23:26.424Z,1004.34
2018-07-03T07:24:26.401Z,1004.34
2018-07-03T07:25:26.379Z,1004.35
2018-07-03T07:26:26.351Z,1004.36
2018-07-03T07:27:26.334Z,1004.34
2018-07-03T07:28:26.306Z,1004.37
2018-07-03T07:29:26.281Z,1004.35
2018-07-03T07:30:26.258Z,1004.36
2018-07-03T07:31:26.236Z,1004.40
2018-07-03T07:32:26.224Z,1004.35
2018-07-03T07:33:26.185Z,1004.39
2018-07-03T07:34:26.166Z,1004.38
2018-07-03T07:35:26.141Z,1004.32
2018-07-03T07:36:26.115Z,1004.34
2018-07-03T07:37:26.092Z,1004.29
2018-07-03T07:38:26.068Z,1004.30
2018-07-03T07:39:26.052Z,1004.32
2018-07-03T07:40:26.017Z,1004.29
2018-07-03T07:41:26.003Z,1004.26
2018-07-03T07:42:25.978Z,1004.30
2018-07-03T07:43:25.950Z,1004.25
2018-07-03T07:44:25.931Z,1004.26
2018-07-03T07:45:25.968Z,1004.25
2018-07-03T07:47:25.856Z,1004.25
2018-07-03T07:48:25.829Z,1004.24
2018-07-03T07:49:25.814Z,1004.26
2018-07-03T07:50:25.798Z,1004.23
2018-07-03T07:51:25.763Z,1004.27
2018-07-03T07:52:25.742Z,1004.26
2018-07-03T07:53:25.715Z,1004.23
2018-07-03T07:54:25.690Z,1004.22
2018-07-03T07:55:25.672Z,1004.20
2018-07-03T07:56:25.686Z,1004.22
2018-07-03T07:57:25.621Z,1004.19
2018-07-03T07:58:25.597Z,1004.21
2018-07-03T07:59:25.612Z,1004.20
2018-07-03T08:00:25.554Z,1004.19
2018-07-03T08:01:25.523Z,1004.20
2018-07-03T08:02:25.501Z,1004.17
2018-07-03T08:03:25.482Z,1004.18
2018-07-03T08:04:25.462Z,1004.16
2018-07-03T08:05:25.428Z,1004.13
2018-07-03T08:06:25.409Z,1004.14
2018-07-03T08:07:25.384Z,1004.13
2018-07-03T08:08:25.358Z,1004.10
2018-07-03T08:09:25.362Z,1004.09
2018-07-03T08:10:25.316Z,1004.09
2018-07-03T08:11:25.292Z,1004.11
2018-07-03T08:12:25.263Z,1004.10
2018-07-03T08:13:25.304Z,1004.12
2018-07-03T08:14:25.221Z,1004.15
2018-07-03T08:15:25.204Z,1004.12
2018-07-03T08:16:25.178Z,1004.15
2018-07-03T08:17:25.151Z,1004.12
2018-07-03T08:18:25.129Z,1004.14
2018-07-03T08:19:25.112Z,1004.13
2018-07-03T08:20:25.078Z,1004.14
2018-07-03T08:21:25.064Z,1004.12
2018-07-03T08:22:25.033Z,1004.13
2018-07-03T08:23:25.079Z,1004.12
2018-07-03T08:24:24.994Z,1004.14
2018-07-03T08:25:24.966Z,1004.16
2018-07-03T08:26:24.940Z,1004.17
2018-07-03T08:27:24.921Z,1004.17
2018-07-03T08:28:24.898Z,1004.18
2018-07-03T08:29:24.869Z,1004.18
2018-07-03T08:30:24.972Z,1004.16
2018-07-03T08:31:24.824Z,1004.13
2018-07-03T08:32:24.856Z,1004.13
2018-07-03T08:33:24.841Z,1004.11
2018-07-03T08:34:24.753Z,1004.19
2018-07-03T08:35:24.729Z,1004.17
2018-07-03T08:36:24.718Z,1004.17
2018-07-03T08:37:24.686Z,1004.18
2018-07-03T08:38:24.666Z,1004.19
2018-07-03T08:39:24.639Z,1004.19
2018-07-03T08:40:24.615Z,1004.18
2018-07-03T08:41:24.592Z,1004.22
2018-07-03T08:42:24.571Z,1004.18
2018-07-03T08:43:24.546Z,1004.18
2018-07-03T08:44:24.518Z,1004.19
2018-07-03T08:45:24.504Z,1004.18
2018-07-03T08:46:24.476Z,1004.20
2018-07-03T08:47:24.464Z,1004.21
2018-07-03T08:48:24.500Z,1004.23
2018-07-03T08:49:24.412Z,1004.23
2018-07-03T08:50:24.389Z,1004.20
2018-07-03T08:51:24.360Z,1004.19
2018-07-03T08:52:24.337Z,1004.16
2018-07-03T08:53:24.316Z,1004.14
2018-07-03T08:54:24.296Z,1004.17
2018-07-03T08:55:24.271Z,1004.10
2018-07-03T08:56:24.245Z,1004.12
2018-07-03T08:57:24.230Z,1004.14
2018-07-03T08:58:24.210Z,1004.11
2018-07-03T08:59:24.175Z,1004.13
2018-07-03T09:00:24.159Z,1004.14
2018-07-03T09:01:24.131Z,1004.16
2018-07-03T09:02:24.108Z,1004.16
2018-07-03T09:03:24.097Z,1004.15
2018-07-03T09:04:24.065Z,1004.15
2018-07-03T09:05:24.043Z,1004.16
2018-07-03T09:06:24.023Z,1004.19
2018-07-03T09:07:23.994Z,1004.16
2018-07-03T09:08:23.980Z,1004.21
2018-07-03T09:09:23.946Z,1004.17
2018-07-03T09:10:23.929Z,1004.17
2018-07-03T09:11:23.954Z,1004.16
2018-07-03T09:12:23.877Z,1004.20
2018-07-03T09:13:23.857Z,1004.19
2018-07-03T09:14:23.838Z,1004.19
2018-07-03T09:15:23.812Z,1004.17
2018-07-03T09:16:23.784Z,1004.18
2018-07-03T09:17:23.773Z,1004.15
2018-07-03T09:18:23.744Z,1004.13
2018-07-03T09:19:23.727Z,1004.14
2018-07-03T09:20:23.698Z,1004.13
2018-07-03T09:21:23.689Z,1004.12
2018-07-03T09:22:23.655Z,1004.09
2018-07-03T09:23:23.633Z,1004.14
2018-07-03T09:24:23.606Z,1004.11
2018-07-03T09:25:23.594Z,1004.07
2018-07-03T09:26:23.601Z,1004.06
2018-07-03T09:27:23.547Z,1004.07
2018-07-03T09:28:23.524Z,1004.06
2018-07-03T09:29:23.496Z,1004.05
2018-07-03T09:30:23.486Z,1004.04
2018-07-03T09:31:23.453Z,1004.05
2018-07-03T09:32:23.431Z,1004.06
2018-07-03T09:33:23.404Z,1004.06
2018-07-03T09:34:23.386Z,1004.02
2018-07-03T09:35:23.373Z,1004.01
2018-07-03T09:36:23.374Z,1004.01
2018-07-03T09:37:23.318Z,1003.98
2018-07-03T09:38:23.297Z,1004.00
2018-07-03T09:39:23.267Z,1004.00
2018-07-03T09:40:23.255Z,1004.00
2018-07-03T09:41:23.225Z,1004.00
2018-07-03T09:42:23.213Z,1003.97
2018-07-03T09:43:23.184Z,1003.94
2018-07-03T09:44:23.154Z,1003.95
2018-07-03T09:45:23.139Z,1003.94
2018-07-03T09:46:23.113Z,1003.94
2018-07-03T09:47:23.088Z,1003.97
2018-07-03T09:48:23.071Z,1003.98
2018-07-03T09:49:23.044Z,1003.95
2018-07-03T09:50:23.020Z,1004.00
2018-07-03T09:51:23.003Z,1003.96
2018-07-03T09:52:22.974Z,1003.93
2018-07-03T09:53:22.961Z,1003.95
2018-07-03T09:54:22.943Z,1003.98
2018-07-03T09:55:22.910Z,1003.91
2018-07-03T09:56:22.883Z,1003.97
2018-07-03T09:57:22.892Z,1003.92
2018-07-03T09:58:22.849Z,1003.93
2018-07-03T09:59:22.824Z,1003.89
2018-07-03T10:00:22.801Z,1003.94
2018-07-03T10:01:22.776Z,1003.93
2018-07-03T10:02:22.751Z,1003.96
2018-07-03T10:03:22.735Z,1003.96
2018-07-03T10:04:22.706Z,1003.93
2018-07-03T10:05:22.687Z,1003.92
2018-07-03T10:06:22.664Z,1003.95
2018-07-03T10:07:22.640Z,1003.97
2018-07-03T10:08:22.622Z,1003.92
2018-07-03T10:09:22.594Z,1003.92
2018-07-03T10:10:22.578Z,1003.93
2018-07-03T10:11:22.554Z,1003.96
2018-07-03T10:12:22.528Z,1003.92
2018-07-03T10:13:22.508Z,1003.93
2018-07-03T10:14:22.484Z,1003.92
2018-07-03T10:15:22.468Z,1003.95
2018-07-03T10:16:22.442Z,1003.99
2018-07-03T10:17:22.426Z,1003.96
2018-07-03T10:18:22.399Z,1003.97
2018-07-03T10:19:22.372Z,1003.96
2018-07-03T10:20:22.352Z,1003.95
2018-07-03T10:21:22.327Z,1003.96
2018-07-03T10:22:22.305Z,1003.96
2018-07-03T10:23:22.288Z,1003.95
2018-07-03T10:24:22.260Z,1003.97
2018-07-03T10:25:22.244Z,1003.95
2018-07-03T10:26:22.224Z,1004.00
2018-07-03T10:27:22.196Z,1003.97
2018-07-03T10:28:22.168Z,1003.95
2018-07-03T10:29:22.155Z,1004.02
2018-07-03T10:30:22.129Z,1003.95
2018-07-03T10:31:22.166Z,1003.93
2018-07-03T10:32:22.090Z,1003.91
2018-07-03T10:33:22.058Z,1003.92
2018-07-03T10:34:22.048Z,1003.95
2018-07-03T10:35:22.017Z,1003.91
2018-07-03T10:36:21.993Z,1003.91
2018-07-03T10:37:21.974Z,1003.91
2018-07-03T10:38:21.946Z,1003.88
2018-07-03T10:39:21.933Z,1003.89
2018-07-03T10:40:21.908Z,1003.90
2018-07-03T10:41:21.882Z,1003.89
2018-07-03T10:42:21.867Z,1003.91
2018-07-03T10:43:21.840Z,1003.90
2018-07-03T10:44:21.822Z,1003.86
2018-07-03T10:45:21.792Z,1003.84
2018-07-03T10:46:21.771Z,1003.85
2018-07-03T10:47:21.756Z,1003.85
2018-07-03T10:48:21.723Z,1003.83
2018-07-03T10:49:21.711Z,1003.78
2018-07-03T10:50:21.688Z,1003.79
2018-07-03T10:51:21.664Z,1003.78
2018-07-03T10:52:21.642Z,1003.76
2018-07-03T10:53:21.617Z,1003.81
2018-07-03T10:54:21.598Z,1003.75
2018-07-03T10:55:21.575Z,1003.74
2018-07-03T10:56:21.551Z,1003.76
2018-07-03T10:57:21.531Z,1003.73
2018-07-03T10:58:21.514Z,1003.70
2018-07-03T10:59:21.484Z,1003.77
2018-07-03T11:00:21.468Z,1003.75
2018-07-03T11:01:21.439Z,1003.82
2018-07-03T11:02:21.422Z,1003.72
2018-07-03T11:03:21.398Z,1003.72
2018-07-03T11:04:21.381Z,1003.74
2018-07-03T11:05:21.357Z,1003.76
2018-07-03T11:06:21.338Z,1003.70
2018-07-03T11:07:21.305Z,1003.80
2018-07-03T11:08:21.296Z,1003.79
2018-07-03T11:09:21.259Z,1003.74
2018-07-03T11:10:21.244Z,1003.70
2018-07-03T11:11:21.239Z,1003.73
2018-07-03T11:12:21.200Z,1003.74
2018-07-03T11:13:21.196Z,1003.73
2018-07-03T11:14:21.154Z,1003.72
2018-07-03T11:15:21.136Z,1003.72
2018-07-03T11:16:21.111Z,1003.68
2018-07-03T11:17:21.094Z,1003.70
2018-07-03T11:18:21.070Z,1003.69
2018-07-03T11:19:21.045Z,1003.72
2018-07-03T11:20:21.031Z,1003.70
2018-07-03T11:21:21.008Z,1003.72
2018-07-03T11:22:20.977Z,1003.67
2018-07-03T11:23:20.964Z,1003.67
2018-07-03T11:24:20.938Z,1003.72
2018-07-03T11:25:20.913Z,1003.67
2018-07-03T11:26:20.896Z,1003.68
2018-07-03T11:27:20.871Z,1003.65
2018-07-03T11:28:20.852Z,1003.67
2018-07-03T11:29:20.834Z,1003.61
2018-07-03T11:30:20.801Z,1003.62
2018-07-03T11:31:20.789Z,1003.61
2018-07-03T11:32:20.762Z,1003.61
2018-07-03T11:33:20.753Z,1003.57
2018-07-03T11:34:20.721Z,1003.56
2018-07-03T11:35:20.698Z,1003.60
2018-07-03T11:36:20.675Z,1003.58
2018-07-03T11:37:20.658Z,1003.58
2018-07-03T11:38:20.635Z,1003.57
2018-07-03T11:39:20.608Z,1003.54
2018-07-03T11:40:20.588Z,1003.57
2018-07-03T11:41:20.567Z,1003.60
2018-07-03T11:42:20.545Z,1003.53
2018-07-03T11:43:20.529Z,1003.56
2018-07-03T11:44:20.500Z,1003.58
2018-07-03T11:45:20.488Z,1003.56
2018-07-03T11:46:20.459Z,1003.53
2018-07-03T11:47:20.438Z,1003.56
2018-07-03T11:48:20.424Z,1003.52
2018-07-03T11:49:20.393Z,1003.55
2018-07-03T11:50:20.369Z,1003.54
2018-07-03T11:51:20.354Z,1003.55
2018-07-03T11:52:20.329Z,1003.54
2018-07-03T11:53:20.305Z,1003.53
2018-07-03T11:54:20.280Z,1003.50
2018-07-03T11:55:20.266Z,1003.52
2018-07-03T11:56:20.240Z,1003.45
2018-07-03T11:57:20.220Z,1003.44
2018-07-03T11:58:20.201Z,1003.40
2018-07-03T11:59:20.171Z,1003.39
2018-07-03T12:00:20.152Z,1003.43
2018-07-03T12:01:20.151Z,1003.46
2018-07-03T12:02:20.111Z,1003.42
2018-07-03T12:03:20.088Z,1003.43
2018-07-03T12:04:20.070Z,1003.41
2018-07-03T12:05:20.044Z,1003.46
2018-07-03T12:06:20.022Z,1003.39